Time,TemperatureF,DewpointF,PressureIn,WindDirection,WindDirectionDegrees,WindSpeedMPH,WindSpeedGustMPH,Humidity,HourlyPrecipIn,Conditions,Clouds,dailyrainin,SoftwareType,DateUTC
2013-03-14 00:02:00,50.0,46.0,30.40,SW,217,1.0,3.0,86,0.00,,,0.00,meteohub,2013-03-14 07:02:00,
2013-03-14 00:07:00,49.8,45.9,30.40,South,173,1.0,4.0,86,0.00,,,0.00,meteohub,2013-03-14 07:07:00,
2013-03-14 00:12:00,49.6,45.7,30.40,SW,221,2.0,4.0,86,0.00,,,0.00,meteohub,2013-03-14 07:12:00,
2013-03-14 00:17:00,49.6,45.7,30.40,SW,234,0.0,3.0,86,0.00,,,0.00,meteohub,2013-03-14 07:17:00,
2013-03-14 00:22:00,49.5,45.5,30.40,SW,233,0.0,3.0,86,0.00,,,0.00,meteohub,2013-03-14 07:22:00,
2013-03-14 00:27:00,49.3,45.5,30.40,SW,225,0.0,2.0,87,0.00,,,0.00,meteohub,2013-03-14 07:27:00,
2013-03-14 00:33:00,49.3,45.5,30.40,SW,223,0.0,1.0,87,0.00,,,0.00,meteohub,2013-03-14 07:33:00,
2013-03-14 00:38:00,49.1,45.3,30.40,SW,223,0.0,1.0,87,0.00,,,0.00,meteohub,2013-03-14 07:38:00,
2013-03-14 00:43:00,48.9,45.1,30.41,SSE,156,0.0,1.0,87,0.00,,,0.00,meteohub,2013-03-14 07:43:00,
2013-03-14 00:48:00,48.7,45.0,30.41,SSE,157,0.0,1.0,87,0.00,,,0.00,meteohub,2013-03-14 07:48:00,
2013-03-14 00:53:00,48.6,44.8,30.40,SSE,157,0.0,1.0,87,0.00,,,0.00,meteohub,2013-03-14 07:53:00,
2013-03-14 00:58:00,48.0,44.4,30.40,SSE,157,0.0,1.0,87,0.00,,,0.00,meteohub,2013-03-14 07:58:00,
2013-03-14 01:04:00,48.0,44.6,30.40,SSE,153,0.0,0.0,88,0.00,,,0.00,meteohub,2013-03-14 08:04:00,
2013-03-14 01:09:00,47.8,44.4,30.40,SSE,153,0.0,0.0,88,0.00,,,0.00,meteohub,2013-03-14 08:09:00,
2013-03-14 01:14:00,47.7,44.2,30.40,SSE,153,0.0,0.0,88,0.00,,,0.00,meteohub,2013-03-14 08:14:00,
2013-03-14 01:19:00,47.7,44.2,30.40,SSE,153,0.0,0.0,88,0.00,,,0.00,meteohub,2013-03-14 08:19:00,
2013-03-14 01:24:00,47.5,44.1,30.40,SSE,152,0.0,1.0,88,0.00,,,0.00,meteohub,2013-03-14 08:24:00,
2013-03-14 01:29:00,47.3,43.9,30.40,SSE,151,0.0,1.0,88,0.00,,,0.00,meteohub,2013-03-14 08:29:00,
2013-03-14 01:34:00,47.5,44.1,30.39,ESE,116,1.0,1.0,88,0.00,,,0.00,meteohub,2013-03-14 08:34:00,
2013-03-14 01:40:00,47.7,44.2,30.39,ESE,118,0.0,1.0,88,0.00,,,0.00,meteohub,2013-03-14 08:40:00,
2013-03-14 01:45:00,48.0,44.6,30.39,ESE,118,0.0,2.0,88,0.00,,,0.00,meteohub,2013-03-14 08:45:00,
2013-03-14 01:50:00,47.8,44.4,30.39,SSE,153,2.0,2.0,88,0.00,,,0.00,meteohub,2013-03-14 08:50:00,
2013-03-14 01:55:00,47.7,44.2,30.38,SE,126,0.0,3.0,88,0.00,,,0.00,meteohub,2013-03-14 08:55:00,
2013-03-14 02:00:00,47.7,44.2,30.38,SE,128,1.0,3.0,88,0.00,,,0.00,meteohub,2013-03-14 09:00:00,
2013-03-14 02:05:00,47.7,44.2,30.39,SSE,153,1.0,3.0,88,0.00,,,0.00,meteohub,2013-03-14 09:05:00,
2013-03-14 02:11:00,47.5,44.1,30.38,SSE,153,0.0,2.0,88,0.00,,,0.00,meteohub,2013-03-14 09:11:00,
2013-03-14 02:16:00,47.5,44.1,30.39,SW,222,1.0,2.0,88,0.00,,,0.00,meteohub,2013-03-14 09:16:00,
2013-03-14 02:22:00,47.1,43.7,30.39,SSE,157,0.0,2.0,88,0.00,,,0.00,meteohub,2013-03-14 09:22:00,
2013-03-14 02:27:00,47.1,43.7,30.39,SSE,159,0.0,2.0,88,0.00,,,0.00,meteohub,2013-03-14 09:27:00,
2013-03-14 02:32:00,46.8,43.3,30.39,SSE,159,0.0,2.0,88,0.00,,,0.00,meteohub,2013-03-14 09:32:00,
2013-03-14 02:37:00,46.8,43.3,30.40,SSE,157,0.0,1.0,88,0.00,,,0.00,meteohub,2013-03-14 09:37:00,
2013-03-14 02:42:00,46.4,43.0,30.40,SSE,157,2.0,2.0,88,0.00,,,0.00,meteohub,2013-03-14 09:42:00,
2013-03-14 02:47:00,46.2,42.8,30.39,SSE,159,0.0,2.0,88,0.00,,,0.00,meteohub,2013-03-14 09:47:00,
2013-03-14 02:52:00,46.2,42.8,30.40,SSE,159,0.0,2.0,88,0.00,,,0.00,meteohub,2013-03-14 09:52:00,
2013-03-14 02:57:00,46.2,42.8,30.40,SSE,159,0.0,2.0,88,0.00,,,0.00,meteohub,2013-03-14 09:57:00,
2013-03-14 03:02:00,46.6,43.2,30.39,SSE,159,0.0,0.0,88,0.00,,,0.00,meteohub,2013-03-14 10:02:00,
2013-03-14 03:08:00,46.6,43.2,30.40,SSE,159,0.0,0.0,88,0.00,,,0.00,meteohub,2013-03-14 10:08:00,
2013-03-14 03:13:00,46.6,43.2,30.40,SSE,159,0.0,0.0,88,0.00,,,0.00,meteohub,2013-03-14 10:13:00,
2013-03-14 03:18:00,46.6,43.2,30.39,SSE,156,1.0,1.0,88,0.00,,,0.00,meteohub,2013-03-14 10:18:00,
2013-03-14 03:23:00,46.6,43.2,30.39,SSE,153,0.0,2.0,88,0.00,,,0.00,meteohub,2013-03-14 10:23:00,
2013-03-14 03:28:00,46.2,42.8,30.39,SW,229,0.0,2.0,88,0.00,,,0.00,meteohub,2013-03-14 10:28:00,
2013-03-14 03:33:00,46.0,42.6,30.38,SSE,159,0.0,2.0,88,0.00,,,0.00,meteohub,2013-03-14 10:33:00,
2013-03-14 03:38:00,46.0,42.6,30.38,SSE,159,0.0,2.0,88,0.00,,,0.00,meteohub,2013-03-14 10:38:00,
2013-03-14 03:43:00,45.9,42.4,30.38,SSE,159,0.0,2.0,88,0.00,,,0.00,meteohub,2013-03-14 10:43:00,
2013-03-14 03:49:00,45.9,42.4,30.38,SSE,161,0.0,2.0,88,0.00,,,0.00,meteohub,2013-03-14 10:49:00,
2013-03-14 03:54:00,45.7,42.3,30.38,SSE,156,2.0,2.0,88,0.00,,,0.00,meteohub,2013-03-14 10:54:00,
2013-03-14 03:59:00,45.7,42.3,30.38,SSE,150,2.0,2.0,88,0.00,,,0.00,meteohub,2013-03-14 10:59:00,
2013-03-14 04:04:00,45.3,41.9,30.37,SSE,159,1.0,2.0,88,0.00,,,0.00,meteohub,2013-03-14 11:04:00,
2013-03-14 04:09:00,45.5,42.1,30.37,SE,137,1.0,2.0,88,0.00,,,0.00,meteohub,2013-03-14 11:09:00,
2013-03-14 04:14:00,45.7,42.3,30.37,SE,144,0.0,2.0,88,0.00,,,0.00,meteohub,2013-03-14 11:14:00,
2013-03-14 04:19:00,45.5,42.1,30.37,SE,132,1.0,2.0,88,0.00,,,0.00,meteohub,2013-03-14 11:19:00,
2013-03-14 04:25:00,45.7,42.3,30.37,SE,132,0.0,2.0,88,0.00,,,0.00,meteohub,2013-03-14 11:25:00,
2013-03-14 04:30:00,45.5,42.1,30.37,SE,132,0.0,2.0,88,0.00,,,0.00,meteohub,2013-03-14 11:30:00,
2013-03-14 04:35:00,45.3,41.9,30.36,SE,132,0.0,1.0,88,0.00,,,0.00,meteohub,2013-03-14 11:35:00,
2013-03-14 04:40:00,45.1,41.7,30.36,SE,132,0.0,0.0,88,0.00,,,0.00,meteohub,2013-03-14 11:40:00,
2013-03-14 04:45:00,45.1,41.7,30.36,SE,132,0.0,1.0,88,0.00,,,0.00,meteohub,2013-03-14 11:45:00,
2013-03-14 04:50:00,45.1,41.7,30.37,SSE,166,2.0,2.0,88,0.00,,,0.00,meteohub,2013-03-14 11:50:00,
2013-03-14 04:56:00,45.1,41.7,30.37,South,183,2.0,3.0,88,0.00,,,0.00,meteohub,2013-03-14 11:56:00,
2013-03-14 05:01:00,45.3,41.9,30.37,South,173,2.0,3.0,88,0.00,,,0.00,meteohub,2013-03-14 12:01:00,
2013-03-14 05:06:00,45.3,41.9,30.36,SSW,196,0.0,3.0,88,0.00,,,0.00,meteohub,2013-03-14 12:06:00,
2013-03-14 05:11:00,45.3,41.9,30.35,SSE,148,0.0,3.0,88,0.00,,,0.00,meteohub,2013-03-14 12:11:00,
2013-03-14 05:16:00,45.7,42.3,30.35,SSE,148,0.0,3.0,88,0.00,,,0.00,meteohub,2013-03-14 12:16:00,
2013-03-14 05:21:00,45.7,42.3,30.36,South,178,0.0,1.0,88,0.00,,,0.00,meteohub,2013-03-14 12:21:00,
2013-03-14 05:27:00,45.5,42.1,30.36,South,184,1.0,1.0,88,0.00,,,0.00,meteohub,2013-03-14 12:27:00,
2013-03-14 05:32:00,45.5,42.1,30.36,SSE,151,0.0,2.0,88,0.00,,,0.00,meteohub,2013-03-14 12:32:00,
2013-03-14 05:37:00,45.3,42.3,30.36,SE,140,0.0,2.0,89,0.00,,,0.00,meteohub,2013-03-14 12:37:00,
2013-03-14 05:42:00,45.1,41.7,30.36,ESE,107,2.0,2.0,88,0.00,,,0.00,meteohub,2013-03-14 12:42:00,
2013-03-14 05:47:00,45.0,41.5,30.36,SSE,150,3.0,3.0,88,0.00,,,0.00,meteohub,2013-03-14 12:47:00,
2013-03-14 05:53:00,45.0,41.5,30.36,SSE,151,2.0,3.0,88,0.00,,,0.00,meteohub,2013-03-14 12:53:00,
2013-03-14 05:58:00,45.1,42.1,30.36,SW,214,1.0,3.0,89,0.00,,,0.00,meteohub,2013-03-14 12:58:00,
2013-03-14 06:03:00,45.0,41.9,30.36,SSW,194,1.0,4.0,89,0.00,,,0.00,meteohub,2013-03-14 13:03:00,
2013-03-14 06:08:00,45.0,41.9,30.36,SSW,202,1.0,4.0,89,0.00,,,0.00,meteohub,2013-03-14 13:08:00,
2013-03-14 06:13:00,44.8,41.7,30.36,SE,142,2.0,3.0,89,0.00,,,0.00,meteohub,2013-03-14 13:13:00,
2013-03-14 06:18:00,45.0,41.9,30.36,SSE,159,1.0,3.0,89,0.00,,,0.00,meteohub,2013-03-14 13:18:00,
2013-03-14 06:23:00,44.8,41.7,30.36,SSE,156,1.0,3.0,89,0.00,,,0.00,meteohub,2013-03-14 13:23:00,
2013-03-14 06:29:00,44.8,41.7,30.36,SSE,156,1.0,3.0,89,0.00,,,0.00,meteohub,2013-03-14 13:29:00,
2013-03-14 06:34:00,44.8,41.7,30.36,South,190,2.0,3.0,89,0.00,,,0.00,meteohub,2013-03-14 13:34:00,
2013-03-14 06:39:00,44.6,41.5,30.36,SSW,200,2.0,3.0,89,0.00,,,0.00,meteohub,2013-03-14 13:39:00,
2013-03-14 06:44:00,44.6,41.5,30.36,SSW,192,2.0,3.0,89,0.00,,,0.00,meteohub,2013-03-14 13:44:00,
2013-03-14 06:50:00,44.6,41.2,30.35,SSW,207,0.0,3.0,88,0.00,,,0.00,meteohub,2013-03-14 13:50:00,
2013-03-14 06:55:00,44.6,41.2,30.35,SSW,192,0.0,3.0,88,0.00,,,0.00,meteohub,2013-03-14 13:55:00,
2013-03-14 07:00:00,44.6,41.2,30.36,SW,222,1.0,2.0,88,0.00,,,0.00,meteohub,2013-03-14 14:00:00,
2013-03-14 07:05:00,44.8,41.2,30.36,SSW,196,1.0,2.0,87,0.00,,,0.00,meteohub,2013-03-14 14:05:00,
2013-03-14 07:10:00,44.8,41.4,30.36,SSW,198,1.0,1.0,88,0.00,,,0.00,meteohub,2013-03-14 14:10:00,
2013-03-14 07:15:00,44.6,41.2,30.36,SSW,198,0.0,1.0,88,0.00,,,0.00,meteohub,2013-03-14 14:15:00,
2013-03-14 07:20:00,44.4,41.2,30.35,SSW,198,0.0,1.0,88,0.00,,,0.00,meteohub,2013-03-14 14:20:00,
2013-03-14 07:26:00,44.4,41.2,30.36,SSE,153,1.0,1.0,88,0.00,,,0.00,meteohub,2013-03-14 14:26:00,
2013-03-14 07:31:00,44.2,41.0,30.36,SSE,153,1.0,1.0,88,0.00,,,0.00,meteohub,2013-03-14 14:31:00,
2013-03-14 07:36:00,44.2,41.0,30.35,SSE,151,0.0,1.0,88,0.00,,,0.00,meteohub,2013-03-14 14:36:00,
2013-03-14 07:41:00,44.1,40.8,30.35,SSE,149,0.0,1.0,88,0.00,,,0.00,meteohub,2013-03-14 14:41:00,
2013-03-14 07:46:00,43.9,40.6,30.35,SSW,205,0.0,1.0,88,0.00,,,0.00,meteohub,2013-03-14 14:46:00,
2013-03-14 07:51:00,43.9,40.3,30.36,SSE,160,1.0,1.0,87,0.00,,,0.00,meteohub,2013-03-14 14:51:00,
2013-03-14 07:56:00,44.1,40.5,30.36,SSW,205,0.0,2.0,87,0.00,,,0.00,meteohub,2013-03-14 14:56:00,
2013-03-14 08:01:00,44.1,40.5,30.36,SSW,213,0.0,3.0,87,0.00,,,0.00,meteohub,2013-03-14 15:01:00,
2013-03-14 08:06:00,44.2,40.6,30.36,SSW,212,0.0,3.0,87,0.00,,,0.00,meteohub,2013-03-14 15:06:00,
2013-03-14 08:12:00,44.4,40.8,30.37,SSE,164,1.0,2.0,87,0.00,,,0.00,meteohub,2013-03-14 15:12:00,
2013-03-14 08:17:00,44.4,40.8,30.37,SSE,151,0.0,2.0,87,0.00,,,0.00,meteohub,2013-03-14 15:17:00,
2013-03-14 08:22:00,44.6,41.0,30.37,SSE,151,0.0,2.0,87,0.00,,,0.00,meteohub,2013-03-14 15:22:00,
2013-03-14 08:27:00,44.8,41.2,30.38,SSE,151,0.0,2.0,87,0.00,,,0.00,meteohub,2013-03-14 15:27:00,
2013-03-14 08:32:00,45.0,41.4,30.37,SSE,150,0.0,0.0,87,0.00,,,0.00,meteohub,2013-03-14 15:32:00,
2013-03-14 08:37:00,45.1,41.5,30.37,SSE,150,0.0,0.0,87,0.00,,,0.00,meteohub,2013-03-14 15:37:00,
2013-03-14 08:42:00,45.5,41.9,30.38,SSE,150,0.0,1.0,87,0.00,,,0.00,meteohub,2013-03-14 15:42:00,
2013-03-14 08:47:00,45.7,42.3,30.37,SSE,150,0.0,1.0,88,0.00,,,0.00,meteohub,2013-03-14 15:47:00,
2013-03-14 08:53:00,45.9,42.4,30.37,SSE,150,0.0,0.0,88,0.00,,,0.00,meteohub,2013-03-14 15:53:00,
2013-03-14 08:58:00,46.0,43.0,30.37,NE,40,1.0,1.0,89,0.00,,,0.00,meteohub,2013-03-14 15:58:00,
2013-03-14 09:03:00,46.0,42.6,30.38,WNW,286,1.0,2.0,88,0.00,,,0.00,meteohub,2013-03-14 16:03:00,
2013-03-14 09:08:00,46.0,42.6,30.38,WNW,285,0.0,2.0,88,0.00,,,0.00,meteohub,2013-03-14 16:08:00,
2013-03-14 09:13:00,46.2,42.8,30.38,WNW,286,0.0,2.0,88,0.00,,,0.00,meteohub,2013-03-14 16:13:00,
2013-03-14 09:18:00,46.2,42.8,30.38,WNW,286,0.0,1.0,88,0.00,,,0.00,meteohub,2013-03-14 16:18:00,
2013-03-14 09:23:00,46.4,43.0,30.38,SW,217,1.0,1.0,88,0.00,,,0.00,meteohub,2013-03-14 16:23:00,
2013-03-14 09:28:00,46.6,43.2,30.38,West,267,0.0,2.0,88,0.00,,,0.00,meteohub,2013-03-14 16:28:00,
2013-03-14 09:34:00,46.6,43.2,30.38,WSW,242,1.0,3.0,88,0.00,,,0.00,meteohub,2013-03-14 16:34:00,
2013-03-14 09:39:00,46.8,43.7,30.38,WSW,254,0.0,3.0,89,0.00,,,0.00,meteohub,2013-03-14 16:39:00,
2013-03-14 09:44:00,46.8,43.7,30.38,WNW,292,0.0,3.0,89,0.00,,,0.00,meteohub,2013-03-14 16:44:00,
2013-03-14 09:49:00,46.9,43.5,30.39,NW,304,0.0,2.0,88,0.00,,,0.00,meteohub,2013-03-14 16:49:00,
2013-03-14 09:54:00,47.3,43.9,30.38,NW,304,0.0,2.0,88,0.00,,,0.00,meteohub,2013-03-14 16:54:00,
2013-03-14 09:59:00,47.7,44.2,30.39,NW,304,0.0,2.0,88,0.00,,,0.00,meteohub,2013-03-14 16:59:00,
2013-03-14 10:04:00,47.7,44.6,30.38,NW,321,0.0,1.0,89,0.00,,,0.00,meteohub,2013-03-14 17:04:00,
2013-03-14 10:09:00,47.8,44.8,30.38,NW,319,0.0,0.0,89,0.00,,,0.00,meteohub,2013-03-14 17:09:00,
2013-03-14 10:15:00,48.0,45.0,30.38,NNW,338,0.0,0.0,89,0.00,,,0.00,meteohub,2013-03-14 17:15:00,
2013-03-14 10:20:00,48.0,44.6,30.39,West,273,0.0,0.0,88,0.00,,,0.00,meteohub,2013-03-14 17:20:00,
2013-03-14 10:26:00,48.4,45.0,30.39,WNW,301,2.0,2.0,88,0.00,,,0.00,meteohub,2013-03-14 17:26:00,
2013-03-14 10:31:00,48.6,45.1,30.39,WNW,300,2.0,3.0,88,0.00,,,0.00,meteohub,2013-03-14 17:31:00,
2013-03-14 10:36:00,48.6,44.8,30.38,West,279,2.0,3.0,87,0.00,,,0.00,meteohub,2013-03-14 17:36:00,
2013-03-14 10:41:00,48.6,44.8,30.38,WSW,253,1.0,3.0,87,0.00,,,0.00,meteohub,2013-03-14 17:41:00,
2013-03-14 10:46:00,48.7,45.0,30.38,NNW,329,0.0,3.0,87,0.00,,,0.00,meteohub,2013-03-14 17:46:00,
2013-03-14 10:51:00,49.1,45.3,30.38,WSW,250,1.0,3.0,87,0.00,,,0.00,meteohub,2013-03-14 17:51:00,
2013-03-14 10:56:00,49.5,45.5,30.38,SW,229,3.0,4.0,86,0.00,,,0.00,meteohub,2013-03-14 17:56:00,
2013-03-14 11:02:00,49.6,45.7,30.38,West,266,1.0,4.0,86,0.00,,,0.00,meteohub,2013-03-14 18:02:00,
2013-03-14 11:07:00,50.0,45.7,30.38,NNW,332,1.0,4.0,85,0.00,,,0.00,meteohub,2013-03-14 18:07:00,
2013-03-14 11:12:00,49.6,45.3,30.38,NW,316,2.0,4.0,85,0.00,,,0.00,meteohub,2013-03-14 18:12:00,
2013-03-14 11:17:00,49.6,45.7,30.38,NW,312,0.0,5.0,86,0.00,,,0.00,meteohub,2013-03-14 18:17:00,
2013-03-14 11:22:00,50.2,46.2,30.38,SSW,205,0.0,5.0,86,0.00,,,0.00,meteohub,2013-03-14 18:22:00,
2013-03-14 11:27:00,50.5,46.6,30.37,WSW,242,0.0,3.0,86,0.00,,,0.00,meteohub,2013-03-14 18:27:00,
2013-03-14 11:32:00,50.9,46.2,30.38,WSW,250,1.0,3.0,84,0.00,,,0.00,meteohub,2013-03-14 18:32:00,
2013-03-14 11:38:00,51.4,46.8,30.38,SW,233,1.0,3.0,84,0.00,,,0.00,meteohub,2013-03-14 18:38:00,
2013-03-14 11:43:00,51.6,46.6,30.38,South,179,0.0,3.0,83,0.00,,,0.00,meteohub,2013-03-14 18:43:00,
2013-03-14 11:49:00,52.0,46.9,30.38,ESE,121,1.0,3.0,83,0.00,,,0.00,meteohub,2013-03-14 18:49:00,
2013-03-14 11:54:00,52.0,46.9,30.37,SE,134,0.0,3.0,83,0.00,,,0.00,meteohub,2013-03-14 18:54:00,
2013-03-14 11:59:00,52.2,47.1,30.38,SSE,156,0.0,2.0,83,0.00,,,0.00,meteohub,2013-03-14 18:59:00,
2013-03-14 12:04:00,52.9,47.8,30.37,East,101,0.0,3.0,83,0.00,,,0.00,meteohub,2013-03-14 19:04:00,
2013-03-14 12:09:00,52.9,47.3,30.37,NW,306,1.0,3.0,81,0.00,,,0.00,meteohub,2013-03-14 19:09:00,
2013-03-14 12:14:00,52.9,47.3,30.37,NNE,19,1.0,3.0,81,0.00,,,0.00,meteohub,2013-03-14 19:14:00,
2013-03-14 12:20:00,53.1,47.3,30.36,NW,307,1.0,4.0,81,0.00,,,0.00,meteohub,2013-03-14 19:20:00,
2013-03-14 12:25:00,53.4,47.5,30.36,East,80,0.0,4.0,80,0.00,,,0.00,meteohub,2013-03-14 19:25:00,
2013-03-14 12:30:00,53.8,47.8,30.37,WSW,244,3.0,4.0,80,0.00,,,0.00,meteohub,2013-03-14 19:30:00,
2013-03-14 12:35:00,54.3,47.7,30.36,NW,312,2.0,10.0,78,0.00,,,0.00,meteohub,2013-03-14 19:35:00,
2013-03-14 12:40:00,55.0,48.6,30.35,NW,317,2.0,10.0,79,0.00,,,0.00,meteohub,2013-03-14 19:40:00,
2013-03-14 12:45:00,55.6,48.9,30.35,NW,304,4.0,10.0,78,0.00,,,0.00,meteohub,2013-03-14 19:45:00,
2013-03-14 12:50:00,55.6,48.6,30.35,NE,34,0.0,7.0,77,0.00,,,0.00,meteohub,2013-03-14 19:50:00,
2013-03-14 12:55:00,55.9,48.6,30.35,NNW,329,3.0,7.0,76,0.00,,,0.00,meteohub,2013-03-14 19:55:00,
2013-03-14 13:00:00,55.8,48.7,30.35,WNW,298,1.0,7.0,77,0.00,,,0.00,meteohub,2013-03-14 20:00:00,
2013-03-14 13:06:00,55.9,48.6,30.35,NW,311,3.0,5.0,76,0.00,,,0.00,meteohub,2013-03-14 20:06:00,
2013-03-14 13:11:00,56.5,48.7,30.35,WSW,253,6.0,9.0,75,0.00,,,0.00,meteohub,2013-03-14 20:11:00,
2013-03-14 13:16:00,56.7,48.4,30.35,NW,321,6.0,11.0,74,0.00,,,0.00,meteohub,2013-03-14 20:16:00,
2013-03-14 13:21:00,56.8,48.6,30.35,West,261,4.0,11.0,74,0.00,,,0.00,meteohub,2013-03-14 20:21:00,
2013-03-14 13:26:00,57.2,48.6,30.34,WSW,249,1.0,11.0,73,0.00,,,0.00,meteohub,2013-03-14 20:26:00,
2013-03-14 13:31:00,57.9,49.3,30.35,NNE,32,2.0,7.0,73,0.00,,,0.00,meteohub,2013-03-14 20:31:00,
2013-03-14 13:36:00,58.5,48.7,30.34,NE,48,2.0,7.0,70,0.00,,,0.00,meteohub,2013-03-14 20:36:00,
2013-03-14 13:42:00,59.2,47.5,30.34,NW,313,6.0,6.0,65,0.00,,,0.00,meteohub,2013-03-14 20:42:00,
2013-03-14 13:47:00,59.5,47.3,30.34,NNE,15,4.0,7.0,64,0.00,,,0.00,meteohub,2013-03-14 20:47:00,
2013-03-14 13:52:00,59.7,46.8,30.33,NW,317,4.0,8.0,62,0.00,,,0.00,meteohub,2013-03-14 20:52:00,
2013-03-14 13:57:00,60.1,46.2,30.33,NW,310,5.0,9.0,60,0.00,,,0.00,meteohub,2013-03-14 20:57:00,
2013-03-14 14:02:00,60.8,45.9,30.32,NNW,345,5.0,11.0,58,0.00,,,0.00,meteohub,2013-03-14 21:02:00,
2013-03-14 14:07:00,61.5,44.8,30.32,WNW,300,6.0,12.0,54,0.00,,,0.00,meteohub,2013-03-14 21:07:00,
2013-03-14 14:12:00,62.4,45.5,30.32,NW,304,3.0,14.0,54,0.00,,,0.00,meteohub,2013-03-14 21:12:00,
2013-03-14 14:17:00,62.8,45.3,30.32,WNW,301,8.0,14.0,53,0.00,,,0.00,meteohub,2013-03-14 21:17:00,
2013-03-14 14:22:00,63.1,45.1,30.32,WSW,257,8.0,14.0,52,0.00,,,0.00,meteohub,2013-03-14 21:22:00,
2013-03-14 14:27:00,63.1,44.8,30.32,WSW,242,6.0,15.0,51,0.00,,,0.00,meteohub,2013-03-14 21:27:00,
2013-03-14 14:32:00,63.0,45.1,30.32,WSW,242,9.0,15.0,52,0.00,,,0.00,meteohub,2013-03-14 21:32:00,
2013-03-14 14:37:00,62.6,45.1,30.32,South,183,6.0,15.0,53,0.00,,,0.00,meteohub,2013-03-14 21:37:00,
2013-03-14 14:42:00,62.2,45.0,30.32,WSW,249,14.0,22.0,53,0.00,,,0.00,meteohub,2013-03-14 21:42:00,
2013-03-14 14:48:00,62.4,44.6,30.33,SW,226,9.0,22.0,52,0.00,,,0.00,meteohub,2013-03-14 21:48:00,
2013-03-14 14:53:00,62.4,44.6,30.33,WSW,245,8.0,22.0,52,0.00,,,0.00,meteohub,2013-03-14 21:53:00,
2013-03-14 14:58:00,62.2,45.0,30.33,SW,227,19.0,22.0,53,0.00,,,0.00,meteohub,2013-03-14 21:58:00,
2013-03-14 15:03:00,62.2,45.0,30.33,SW,217,12.0,26.0,53,0.00,,,0.00,meteohub,2013-03-14 22:03:00,
2013-03-14 15:08:00,62.4,44.6,30.33,WSW,248,9.0,26.0,52,0.00,,,0.00,meteohub,2013-03-14 22:08:00,
2013-03-14 15:13:00,63.0,44.6,30.33,WSW,246,15.0,21.0,51,0.00,,,0.00,meteohub,2013-03-14 22:13:00,
2013-03-14 15:19:00,63.1,44.2,30.33,WSW,245,9.0,21.0,50,0.00,,,0.00,meteohub,2013-03-14 22:19:00,
2013-03-14 15:24:00,63.1,44.2,30.33,SW,225,12.0,20.0,50,0.00,,,0.00,meteohub,2013-03-14 22:24:00,
2013-03-14 15:29:00,63.3,45.0,30.33,SW,230,5.0,22.0,51,0.00,,,0.00,meteohub,2013-03-14 22:29:00,
2013-03-14 15:34:00,63.3,44.4,30.33,WSW,244,12.0,22.0,50,0.00,,,0.00,meteohub,2013-03-14 22:34:00,
2013-03-14 15:39:00,63.5,44.6,30.33,WSW,248,14.0,22.0,50,0.00,,,0.00,meteohub,2013-03-14 22:39:00,
2013-03-14 15:44:00,63.1,44.8,30.34,SW,230,11.0,22.0,51,0.00,,,0.00,meteohub,2013-03-14 22:44:00,
2013-03-14 15:50:00,62.8,44.4,30.34,WSW,244,9.0,22.0,51,0.00,,,0.00,meteohub,2013-03-14 22:50:00,
2013-03-14 15:55:00,63.0,44.6,30.34,WSW,248,18.0,20.0,51,0.00,,,0.00,meteohub,2013-03-14 22:55:00,
2013-03-14 16:00:00,62.4,44.1,30.34,WSW,244,7.0,20.0,51,0.00,,,0.00,meteohub,2013-03-14 23:00:00,
2013-03-14 16:05:00,62.2,44.4,30.34,SW,219,11.0,19.0,52,0.00,,,0.00,meteohub,2013-03-14 23:05:00,
2013-03-14 16:10:00,61.9,44.6,30.34,WSW,245,8.0,19.0,53,0.00,,,0.00,meteohub,2013-03-14 23:10:00,
2013-03-14 16:15:00,61.5,44.2,30.34,WSW,245,10.0,18.0,53,0.00,,,0.00,meteohub,2013-03-14 23:15:00,
2013-03-14 16:20:00,61.3,44.1,30.34,West,263,12.0,21.0,53,0.00,,,0.00,meteohub,2013-03-14 23:20:00,
2013-03-14 16:26:00,61.3,44.1,30.34,WSW,248,10.0,21.0,53,0.00,,,0.00,meteohub,2013-03-14 23:26:00,
2013-03-14 16:31:00,61.3,43.5,30.34,West,276,7.0,21.0,52,0.00,,,0.00,meteohub,2013-03-14 23:31:00,
2013-03-14 16:36:00,61.3,44.1,30.34,SW,214,5.0,18.0,53,0.00,,,0.00,meteohub,2013-03-14 23:36:00,
2013-03-14 16:41:00,61.3,43.5,30.33,West,276,4.0,18.0,52,0.00,,,0.00,meteohub,2013-03-14 23:41:00,
2013-03-14 16:47:00,61.5,43.7,30.34,WNW,288,5.0,16.0,52,0.00,,,0.00,meteohub,2013-03-14 23:47:00,
2013-03-14 16:52:00,61.9,43.5,30.34,WSW,256,6.0,16.0,51,0.00,,,0.00,meteohub,2013-03-14 23:52:00,
2013-03-14 16:57:00,61.7,42.8,30.34,WSW,245,8.0,16.0,50,0.00,,,0.00,meteohub,2013-03-14 23:57:00,
2013-03-14 17:02:00,61.5,42.6,30.34,WNW,283,6.0,19.0,50,0.00,,,0.00,meteohub,2013-03-15 00:02:00,
2013-03-14 17:08:00,61.3,43.0,30.35,WSW,253,12.0,19.0,51,0.00,,,0.00,meteohub,2013-03-15 00:08:00,
2013-03-14 17:13:00,61.3,43.0,30.34,WSW,246,6.0,19.0,51,0.00,,,0.00,meteohub,2013-03-15 00:13:00,
2013-03-14 17:18:00,61.2,42.4,30.34,SW,230,6.0,19.0,50,0.00,,,0.00,meteohub,2013-03-15 00:18:00,
2013-03-14 17:23:00,61.2,43.0,30.35,West,273,5.0,21.0,51,0.00,,,0.00,meteohub,2013-03-15 00:23:00,
2013-03-14 17:28:00,61.2,43.0,30.35,SW,222,9.0,21.0,51,0.00,,,0.00,meteohub,2013-03-15 00:28:00,
2013-03-14 17:33:00,61.2,43.0,30.35,WSW,245,14.0,20.0,51,0.00,,,0.00,meteohub,2013-03-15 00:33:00,
2013-03-14 17:38:00,60.8,42.6,30.36,WSW,241,14.0,20.0,51,0.00,,,0.00,meteohub,2013-03-15 00:38:00,
2013-03-14 17:44:00,60.3,42.1,30.35,SW,234,13.0,21.0,51,0.00,,,0.00,meteohub,2013-03-15 00:44:00,
2013-03-14 17:49:00,60.1,41.9,30.36,WNW,284,4.0,21.0,51,0.00,,,0.00,meteohub,2013-03-15 00:49:00,
2013-03-14 17:54:00,59.7,41.5,30.37,WNW,283,7.0,21.0,51,0.00,,,0.00,meteohub,2013-03-15 00:54:00,
2013-03-14 17:59:00,59.2,41.5,30.37,SW,226,11.0,21.0,52,0.00,,,0.00,meteohub,2013-03-15 00:59:00,
2013-03-14 18:04:00,58.6,41.0,30.37,WSW,250,13.0,18.0,52,0.00,,,0.00,meteohub,2013-03-15 01:04:00,
2013-03-14 18:09:00,58.5,40.8,30.38,WSW,253,6.0,18.0,52,0.00,,,0.00,meteohub,2013-03-15 01:09:00,
2013-03-14 18:14:00,58.1,41.0,30.38,WNW,290,4.0,20.0,53,0.00,,,0.00,meteohub,2013-03-15 01:14:00,
2013-03-14 18:20:00,57.7,41.2,30.38,WSW,245,11.0,20.0,54,0.00,,,0.00,meteohub,2013-03-15 01:20:00,
2013-03-14 18:25:00,57.4,41.4,30.38,SW,217,7.0,20.0,55,0.00,,,0.00,meteohub,2013-03-15 01:25:00,
2013-03-14 18:30:00,57.0,41.0,30.38,SW,234,9.0,17.0,55,0.00,,,0.00,meteohub,2013-03-15 01:30:00,
2013-03-14 18:35:00,56.8,41.4,30.38,SW,226,9.0,17.0,56,0.00,,,0.00,meteohub,2013-03-15 01:35:00,
2013-03-14 18:40:00,56.5,41.4,30.38,SW,219,9.0,17.0,57,0.00,,,0.00,meteohub,2013-03-15 01:40:00,
2013-03-14 18:46:00,56.3,41.2,30.39,SW,234,7.0,19.0,57,0.00,,,0.00,meteohub,2013-03-15 01:46:00,
2013-03-14 18:51:00,56.1,41.5,30.39,WSW,248,8.0,19.0,58,0.00,,,0.00,meteohub,2013-03-15 01:51:00,
2013-03-14 18:56:00,55.8,41.7,30.40,WNW,298,8.0,19.0,59,0.00,,,0.00,meteohub,2013-03-15 01:56:00,
2013-03-14 19:01:00,55.6,41.9,30.40,WSW,252,13.0,19.0,60,0.00,,,0.00,meteohub,2013-03-15 02:01:00,
2013-03-14 19:06:00,55.4,41.7,30.40,SW,232,7.0,19.0,60,0.00,,,0.00,meteohub,2013-03-15 02:06:00,
2013-03-14 19:12:00,55.2,42.1,30.40,WSW,237,6.0,19.0,61,0.00,,,0.00,meteohub,2013-03-15 02:12:00,
2013-03-14 19:17:00,55.0,41.9,30.41,West,271,3.0,19.0,61,0.00,,,0.00,meteohub,2013-03-15 02:17:00,
2013-03-14 19:22:00,54.9,42.1,30.40,WNW,283,3.0,12.0,62,0.00,,,0.00,meteohub,2013-03-15 02:22:00,
2013-03-14 19:27:00,54.7,42.3,30.41,SW,226,5.0,12.0,63,0.00,,,0.00,meteohub,2013-03-15 02:27:00,
2013-03-14 19:32:00,54.5,42.1,30.40,SW,228,7.0,12.0,63,0.00,,,0.00,meteohub,2013-03-15 02:32:00,
2013-03-14 19:37:00,54.3,42.8,30.41,West,271,5.0,9.0,65,0.00,,,0.00,meteohub,2013-03-15 02:37:00,
2013-03-14 19:42:00,54.1,42.6,30.41,West,266,4.0,10.0,65,0.00,,,0.00,meteohub,2013-03-15 02:42:00,
2013-03-14 19:48:00,54.0,42.8,30.42,SW,235,3.0,10.0,66,0.00,,,0.00,meteohub,2013-03-15 02:48:00,
2013-03-14 19:53:00,53.8,43.2,30.42,West,264,3.0,9.0,67,0.00,,,0.00,meteohub,2013-03-15 02:53:00,
2013-03-14 19:58:00,53.4,43.2,30.42,WNW,299,3.0,12.0,68,0.00,,,0.00,meteohub,2013-03-15 02:58:00,
2013-03-14 20:03:00,53.2,43.3,30.43,West,272,5.0,12.0,69,0.00,,,0.00,meteohub,2013-03-15 03:03:00,
2013-03-14 20:08:00,53.1,43.9,30.43,WNW,283,7.0,12.0,71,0.00,,,0.00,meteohub,2013-03-15 03:08:00,
2013-03-14 20:13:00,52.9,44.1,30.43,WSW,240,12.0,13.0,72,0.00,,,0.00,meteohub,2013-03-15 03:13:00,
2013-03-14 20:19:00,52.5,44.4,30.43,SW,221,5.0,15.0,74,0.00,,,0.00,meteohub,2013-03-15 03:19:00,
2013-03-14 20:24:00,52.2,44.4,30.43,WSW,251,4.0,15.0,75,0.00,,,0.00,meteohub,2013-03-15 03:24:00,
2013-03-14 20:29:00,52.0,44.6,30.43,WSW,252,5.0,15.0,76,0.00,,,0.00,meteohub,2013-03-15 03:29:00,
2013-03-14 20:34:00,52.0,44.6,30.43,WSW,250,7.0,12.0,76,0.00,,,0.00,meteohub,2013-03-15 03:34:00,
2013-03-14 20:40:00,52.0,44.6,30.43,WNW,296,7.0,12.0,76,0.00,,,0.00,meteohub,2013-03-15 03:40:00,
2013-03-14 20:45:00,52.0,44.6,30.43,WSW,239,4.0,12.0,76,0.00,,,0.00,meteohub,2013-03-15 03:45:00,
2013-03-14 20:50:00,52.0,44.6,30.43,WSW,250,5.0,12.0,76,0.00,,,0.00,meteohub,2013-03-15 03:50:00,
2013-03-14 20:55:00,52.0,45.0,30.43,West,271,2.0,13.0,77,0.00,,,0.00,meteohub,2013-03-15 03:55:00,
2013-03-14 21:00:00,52.0,45.0,30.43,West,280,4.0,13.0,77,0.00,,,0.00,meteohub,2013-03-15 04:00:00,
2013-03-14 21:01:00,52.0,45.0,30.43,West,277,4.0,13.0,77,0.00,,,0.00,meteohub,2013-03-15 04:01:00,
2013-03-14 21:02:00,52.0,45.0,30.43,WSW,246,7.0,13.0,77,0.00,,,0.00,meteohub,2013-03-15 04:02:00,
2013-03-14 21:06:00,52.0,45.0,30.44,WSW,242,2.0,13.0,77,0.00,,,0.00,meteohub,2013-03-15 04:06:00,
2013-03-14 21:11:00,51.8,45.1,30.44,SW,230,4.0,9.0,78,0.00,,,0.00,meteohub,2013-03-15 04:11:00,
2013-03-14 21:17:00,51.6,45.0,30.43,West,272,3.0,9.0,78,0.00,,,0.00,meteohub,2013-03-15 04:17:00,
2013-03-14 21:22:00,51.4,45.1,30.44,WNW,286,3.0,9.0,79,0.00,,,0.00,meteohub,2013-03-15 04:22:00,
2013-03-14 21:27:00,51.3,45.3,30.44,SW,228,5.0,9.0,80,0.00,,,0.00,meteohub,2013-03-15 04:27:00,
2013-03-14 21:32:00,51.1,45.5,30.44,WSW,245,4.0,10.0,81,0.00,,,0.00,meteohub,2013-03-15 04:32:00,
2013-03-14 21:37:00,50.7,45.5,30.44,SW,227,6.0,10.0,82,0.00,,,0.00,meteohub,2013-03-15 04:37:00,
2013-03-14 21:42:00,50.5,45.5,30.44,WSW,248,4.0,10.0,83,0.00,,,0.00,meteohub,2013-03-15 04:42:00,
2013-03-14 21:47:00,50.4,45.7,30.44,West,277,4.0,12.0,84,0.00,,,0.00,meteohub,2013-03-15 04:47:00,
2013-03-14 21:52:00,50.2,45.9,30.44,SW,236,2.0,12.0,85,0.00,,,0.00,meteohub,2013-03-15 04:52:00,
2013-03-14 21:57:00,49.8,45.9,30.45,WSW,240,4.0,12.0,86,0.00,,,0.00,meteohub,2013-03-15 04:57:00,
2013-03-14 22:02:00,49.6,45.7,30.45,WSW,256,8.0,10.0,86,0.00,,,0.00,meteohub,2013-03-15 05:02:00,
2013-03-14 22:07:00,49.6,45.7,30.45,SW,214,3.0,9.0,86,0.00,,,0.00,meteohub,2013-03-15 05:07:00,
2013-03-14 22:12:00,49.6,45.7,30.45,West,280,4.0,9.0,86,0.00,,,0.00,meteohub,2013-03-15 05:12:00,
2013-03-14 22:17:00,49.6,45.7,30.45,WNW,294,2.0,9.0,86,0.00,,,0.00,meteohub,2013-03-15 05:17:00,
2013-03-14 22:22:00,49.3,45.5,30.45,WNW,283,2.0,8.0,87,0.00,,,0.00,meteohub,2013-03-15 05:22:00,
2013-03-14 22:28:00,49.3,45.5,30.46,NW,306,2.0,7.0,87,0.00,,,0.00,meteohub,2013-03-15 05:28:00,
2013-03-14 22:33:00,49.1,45.3,30.46,West,273,2.0,7.0,87,0.00,,,0.00,meteohub,2013-03-15 05:33:00,
2013-03-14 22:38:00,49.1,45.3,30.46,WSW,251,3.0,7.0,87,0.00,,,0.00,meteohub,2013-03-15 05:38:00,
2013-03-14 22:43:00,49.3,45.5,30.46,WNW,286,3.0,8.0,87,0.00,,,0.00,meteohub,2013-03-15 05:43:00,
2013-03-14 22:48:00,49.3,45.5,30.46,SW,214,3.0,8.0,87,0.00,,,0.00,meteohub,2013-03-15 05:48:00,
2013-03-14 22:53:00,49.5,45.7,30.46,West,280,4.0,9.0,87,0.00,,,0.00,meteohub,2013-03-15 05:53:00,
2013-03-14 22:58:00,49.6,45.7,30.46,West,277,3.0,9.0,86,0.00,,,0.00,meteohub,2013-03-15 05:58:00,
2013-03-14 23:04:00,50.0,46.0,30.46,SW,230,9.0,10.0,86,0.00,,,0.00,meteohub,2013-03-15 06:04:00,
2013-03-14 23:09:00,50.4,46.0,30.46,WSW,253,8.0,10.0,85,0.00,,,0.00,meteohub,2013-03-15 06:09:00,
2013-03-14 23:14:00,50.5,46.2,30.46,West,272,12.0,13.0,85,0.00,,,0.00,meteohub,2013-03-15 06:14:00,
2013-03-14 23:19:00,50.7,46.0,30.47,WSW,240,4.0,13.0,84,0.00,,,0.00,meteohub,2013-03-15 06:19:00,
2013-03-14 23:24:00,50.7,46.0,30.46,WSW,255,5.0,13.0,84,0.00,,,0.00,meteohub,2013-03-15 06:24:00,
2013-03-14 23:29:00,50.7,46.4,30.46,WSW,248,3.0,12.0,85,0.00,,,0.00,meteohub,2013-03-15 06:29:00,
2013-03-14 23:34:00,50.7,46.4,30.46,WSW,242,5.0,10.0,85,0.00,,,0.00,meteohub,2013-03-15 06:34:00,
2013-03-14 23:40:00,50.7,46.4,30.46,SW,229,2.0,12.0,85,0.00,,,0.00,meteohub,2013-03-15 06:40:00,
2013-03-14 23:45:00,50.7,46.4,30.46,SW,234,5.0,12.0,85,0.00,,,0.00,meteohub,2013-03-15 06:45:00,
2013-03-14 23:50:00,50.9,46.6,30.47,SW,233,8.0,13.0,85,0.00,,,0.00,meteohub,2013-03-15 06:50:00,
2013-03-14 23:55:00,50.7,46.4,30.47,WSW,245,8.0,13.0,85,0.00,,,0.00,meteohub,2013-03-15 06:55:00,